PWSweather.com
Personal Weather Stations
Station Observations
URBANDALE
Westwind Acres And Meredith Hills, Urbandale, IA 50322

Westwind Acres And Meredith HillsUrbandale, IA 50322

Lat: 41.643, Lon: -93.709

Elevation: 928

Station Type:

http://urbandaleweather.com

High Low Average
Temperature 37.0°F2.8°C 25.7°F-3.5°C 31.5°F-0.3°C
Dew Point 32.7°F0.4°C 22.1°F-5.5°C 28.9°F-1.7°C
Winds 4.9 mph 7.9 kmh Calm Calm 3.0 mph WSW4.8 kmh WSW
Wind Gusts 18.0 mph29.0 kmh 0.9 mph1.4 kmh 9.0 mph14.5 kmh
Humidity 96% 83% 90%
Pressure 30.06 in1017.9 mb 29.29 in991.9 mb -
Precipitation 0.02 in0.5 mm - -
Hour Temp Dew Point Humidity Winds Wind Gusts Pressure Precip Precip Rate Daily Precip Total
12:02 AM 37.0°F2.8°C 32.7°F0.4°C 84% Calm Calm 0.9 mph1.4 kmh 29.29 in991.9 mb 0.00 in0.0 mm 0.00 in0.0 mm 0.00 in0.0 mm
12:07 AM 36.9°F2.7°C 32.2°F0.1°C 83% Calm Calm 2.0 mph3.2 kmh 29.29 in991.9 mb 0.00 in0.0 mm 0.00 in0.0 mm 0.00 in0.0 mm
12:12 AM 36.9°F2.7°C 32.2°F0.1°C 83% Calm Calm 2.0 mph3.2 kmh 29.29 in991.9 mb 0.00 in0.0 mm 0.00 in0.0 mm 0.00 in0.0 mm
12:17 AM 36.7°F2.6°C 32.0°F0.0°C 83% 0.9 mph SW1.4 kmh SW 4.0 mph6.4 kmh 29.29 in991.9 mb 0.00 in0.0 mm 0.00 in0.0 mm 0.00 in0.0 mm
12:22 AM 36.7°F2.6°C 32.0°F0.0°C 83% 0.9 mph SSW1.4 kmh SSW 4.0 mph6.4 kmh 29.29 in991.9 mb 0.00 in0.0 mm 0.00 in0.0 mm 0.00 in0.0 mm
12:27 AM 36.7°F2.6°C 32.0°F0.0°C 83% 0.9 mph SSE1.4 kmh SSE 2.0 mph3.2 kmh 29.29 in991.9 mb 0.00 in0.0 mm 0.00 in0.0 mm 0.00 in0.0 mm
12:32 AM 36.5°F2.5°C 31.8°F-0.1°C 83% 0.9 mph WSW1.4 kmh WSW 4.0 mph6.4 kmh 29.29 in991.9 mb 0.00 in0.0 mm 0.00 in0.0 mm 0.00 in0.0 mm
12:37 AM 36.5°F2.5°C 31.8°F-0.1°C 83% 0.9 mph SW1.4 kmh SW 2.9 mph4.7 kmh 29.29 in991.9 mb 0.00 in0.0 mm 0.00 in0.0 mm 0.00 in0.0 mm
12:42 AM 36.3°F2.4°C 31.6°F-0.2°C 83% 0.9 mph WSW1.4 kmh WSW 2.9 mph4.7 kmh 29.29 in991.9 mb 0.00 in0.0 mm 0.00 in0.0 mm 0.00 in0.0 mm
12:47 AM 36.3°F2.4°C 31.6°F-0.2°C 83% 0.9 mph WSW1.4 kmh WSW 6.0 mph9.7 kmh 29.29 in991.9 mb 0.00 in0.0 mm 0.00 in0.0 mm 0.00 in0.0 mm
12:52 AM 36.1°F2.3°C 31.8°F-0.1°C 84% 0.9 mph SW1.4 kmh SW 2.9 mph4.7 kmh 29.29 in991.9 mb 0.00 in0.0 mm 0.00 in0.0 mm 0.00 in0.0 mm
12:57 AM 36.1°F2.3°C 31.8°F-0.1°C 84% 0.9 mph SW1.4 kmh SW 4.0 mph6.4 kmh 29.29 in991.9 mb 0.00 in0.0 mm 0.00 in0.0 mm 0.00 in0.0 mm
01:02 AM 36.1°F2.3°C 32.0°F0.0°C 85% 0.9 mph WSW1.4 kmh WSW 4.0 mph6.4 kmh 29.29 in991.9 mb 0.00 in0.0 mm 0.00 in0.0 mm 0.00 in0.0 mm
01:07 AM 36.0°F2.2°C 31.8°F-0.1°C 85% 0.9 mph WSW1.4 kmh WSW 4.0 mph6.4 kmh 29.29 in991.9 mb 0.00 in0.0 mm 0.00 in0.0 mm 0.00 in0.0 mm
01:12 AM 36.0°F2.2°C 31.8°F-0.1°C 85% 0.9 mph SSW1.4 kmh SSW 5.0 mph8.0 kmh 29.29 in991.9 mb 0.00 in0.0 mm 0.00 in0.0 mm 0.00 in0.0 mm
01:17 AM 36.0°F2.2°C 32.2°F0.1°C 86% 0.9 mph SW1.4 kmh SW 4.0 mph6.4 kmh 29.29 in991.9 mb 0.00 in0.0 mm 0.00 in0.0 mm 0.00 in0.0 mm
01:22 AM 36.0°F2.2°C 32.2°F0.1°C 86% 0.9 mph WSW1.4 kmh WSW 2.0 mph3.2 kmh 29.29 in991.9 mb 0.00 in0.0 mm 0.00 in0.0 mm 0.00 in0.0 mm
01:27 AM 35.8°F2.1°C 32.0°F0.0°C 86% 0.9 mph WSW1.4 kmh WSW 4.0 mph6.4 kmh 29.30 in992.2 mb 0.00 in0.0 mm 0.00 in0.0 mm 0.00 in0.0 mm
01:32 AM 35.8°F2.1°C 32.4°F0.2°C 87% 0.9 mph SW1.4 kmh SW 2.0 mph3.2 kmh 29.30 in992.2 mb 0.00 in0.0 mm 0.00 in0.0 mm 0.00 in0.0 mm
01:37 AM 35.8°F2.1°C 32.4°F0.2°C 87% Calm Calm 2.0 mph3.2 kmh 29.29 in991.9 mb 0.00 in0.0 mm 0.00 in0.0 mm 0.00 in0.0 mm
01:42 AM 35.8°F2.1°C 32.4°F0.2°C 87% Calm Calm 2.0 mph3.2 kmh 29.29 in991.9 mb 0.00 in0.0 mm 0.00 in0.0 mm 0.00 in0.0 mm
01:47 AM 35.8°F2.1°C 32.4°F0.2°C 87% Calm Calm 2.0 mph3.2 kmh 29.30 in992.2 mb 0.00 in0.0 mm 0.00 in0.0 mm 0.00 in0.0 mm
01:52 AM 35.8°F2.1°C 32.5°F0.3°C 88% Calm Calm 0.9 mph1.4 kmh 29.30 in992.2 mb 0.00 in0.0 mm 0.00 in0.0 mm 0.00 in0.0 mm
01:57 AM 35.6°F2.0°C 32.4°F0.2°C 88% Calm Calm 0.9 mph1.4 kmh 29.30 in992.2 mb 0.00 in0.0 mm 0.00 in0.0 mm 0.00 in0.0 mm
02:02 AM 35.6°F2.0°C 32.4°F0.2°C 88% Calm Calm 0.9 mph1.4 kmh 29.30 in992.2 mb 0.00 in0.0 mm 0.00 in0.0 mm 0.00 in0.0 mm
02:07 AM 35.6°F2.0°C 32.4°F0.2°C 88% Calm Calm 0.9 mph1.4 kmh 29.30 in992.2 mb 0.00 in0.0 mm 0.00 in0.0 mm 0.00 in0.0 mm
02:12 AM 35.4°F1.9°C 32.2°F0.1°C 88% Calm Calm 2.9 mph4.7 kmh 29.30 in992.2 mb 0.00 in0.0 mm 0.00 in0.0 mm 0.00 in0.0 mm
02:17 AM 35.6°F2.0°C 32.4°F0.2°C 88% 0.9 mph SW1.4 kmh SW 2.0 mph3.2 kmh 29.30 in992.2 mb 0.00 in0.0 mm 0.00 in0.0 mm 0.00 in0.0 mm
02:22 AM 35.4°F1.9°C 32.5°F0.3°C 89% Calm Calm 2.0 mph3.2 kmh 29.30 in992.2 mb 0.00 in0.0 mm 0.00 in0.0 mm 0.00 in0.0 mm
02:27 AM 35.4°F1.9°C 32.5°F0.3°C 89% Calm Calm 2.9 mph4.7 kmh 29.31 in992.6 mb 0.00 in0.0 mm 0.00 in0.0 mm 0.00 in0.0 mm
02:32 AM 35.4°F1.9°C 32.5°F0.3°C 89% Calm Calm 2.0 mph3.2 kmh 29.31 in992.6 mb 0.00 in0.0 mm 0.00 in0.0 mm 0.00 in0.0 mm
02:37 AM 35.4°F1.9°C 32.5°F0.3°C 89% Calm Calm 0.9 mph1.4 kmh 29.31 in992.6 mb 0.00 in0.0 mm 0.00 in0.0 mm 0.00 in0.0 mm
02:42 AM 35.4°F1.9°C 32.5°F0.3°C 89% Calm Calm 3.0 mph4.8 kmh 29.31 in992.6 mb 0.00 in0.0 mm 0.00 in0.0 mm 0.00 in0.0 mm
02:47 AM 35.4°F1.9°C 32.5°F0.3°C 89% Calm Calm 2.0 mph3.2 kmh 29.31 in992.6 mb 0.00 in0.0 mm 0.00 in0.0 mm 0.00 in0.0 mm
02:52 AM 35.2°F1.8°C 32.5°F0.3°C 90% Calm Calm 2.9 mph4.7 kmh 29.31 in992.6 mb 0.00 in0.0 mm 0.00 in0.0 mm 0.00 in0.0 mm
02:57 AM 35.2°F1.8°C 32.5°F0.3°C 90% Calm Calm 2.9 mph4.7 kmh 29.31 in992.6 mb 0.00 in0.0 mm 0.00 in0.0 mm 0.00 in0.0 mm
03:02 AM 35.1°F1.7°C 32.4°F0.2°C 90% Calm Calm 0.9 mph1.4 kmh 29.31 in992.6 mb 0.00 in0.0 mm 0.00 in0.0 mm 0.00 in0.0 mm
03:07 AM 34.9°F1.6°C 32.5°F0.3°C 91% Calm Calm 2.0 mph3.2 kmh 29.31 in992.6 mb 0.00 in0.0 mm 0.00 in0.0 mm 0.00 in0.0 mm
03:12 AM 34.5°F1.4°C 32.2°F0.1°C 91% Calm Calm 4.0 mph6.4 kmh 29.31 in992.6 mb 0.01 in0.3 mm 0.12 in3.0 mm 0.01 in0.3 mm
03:17 AM 34.3°F1.3°C 32.2°F0.1°C 92% Calm Calm 2.0 mph3.2 kmh 29.31 in992.6 mb 0.01 in0.3 mm 0.00 in0.0 mm 0.01 in0.3 mm
03:22 AM 34.3°F1.3°C 32.2°F0.1°C 92% Calm Calm 0.9 mph1.4 kmh 29.31 in992.6 mb 0.01 in0.3 mm 0.00 in0.0 mm 0.01 in0.3 mm
03:27 AM 34.2°F1.2°C 32.4°F0.2°C 93% Calm Calm 2.0 mph3.2 kmh 29.31 in992.6 mb 0.01 in0.3 mm 0.00 in0.0 mm 0.01 in0.3 mm
03:32 AM 34.0°F1.1°C 32.2°F0.1°C 93% Calm Calm 0.9 mph1.4 kmh 29.32 in992.9 mb 0.01 in0.3 mm 0.00 in0.0 mm 0.01 in0.3 mm
03:37 AM 33.6°F0.9°C 31.8°F-0.1°C 93% Calm Calm 2.0 mph3.2 kmh 29.32 in992.9 mb 0.01 in0.3 mm 0.00 in0.0 mm 0.01 in0.3 mm
03:42 AM 33.4°F0.8°C 31.6°F-0.2°C 93% Calm Calm 0.9 mph1.4 kmh 29.32 in992.9 mb 0.01 in0.3 mm 0.00 in0.0 mm 0.01 in0.3 mm
03:47 AM 33.3°F0.7°C 31.6°F-0.2°C 94% Calm Calm 2.9 mph4.7 kmh 29.32 in992.9 mb 0.01 in0.3 mm 0.00 in0.0 mm 0.01 in0.3 mm
03:52 AM 33.3°F0.7°C 31.6°F-0.2°C 94% Calm Calm 2.9 mph4.7 kmh 29.32 in992.9 mb 0.01 in0.3 mm 0.00 in0.0 mm 0.01 in0.3 mm
03:57 AM 33.3°F0.7°C 31.6°F-0.2°C 94% Calm Calm 2.0 mph3.2 kmh 29.32 in992.9 mb 0.01 in0.3 mm 0.00 in0.0 mm 0.01 in0.3 mm
04:02 AM 33.1°F0.6°C 31.5°F-0.3°C 94% Calm Calm 4.0 mph6.4 kmh 29.32 in992.9 mb 0.01 in0.3 mm 0.00 in0.0 mm 0.01 in0.3 mm
04:07 AM 33.1°F0.6°C 31.8°F-0.1°C 95% 0.9 mph WSW1.4 kmh WSW 6.0 mph9.7 kmh 29.33 in993.2 mb 0.01 in0.3 mm 0.00 in0.0 mm 0.01 in0.3 mm
04:12 AM 33.1°F0.6°C 31.8°F-0.1°C 95% 0.9 mph SW1.4 kmh SW 8.1 mph13.0 kmh 29.33 in993.2 mb 0.00 in0.0 mm 0.00 in0.0 mm 0.01 in0.3 mm
04:17 AM 33.1°F0.6°C 31.8°F-0.1°C 95% 0.9 mph WSW1.4 kmh WSW 2.0 mph3.2 kmh 29.33 in993.2 mb 0.00 in0.0 mm 0.00 in0.0 mm 0.01 in0.3 mm
04:22 AM 33.1°F0.6°C 31.8°F-0.1°C 95% 0.9 mph NNW1.4 kmh NNW 6.9 mph11.1 kmh 29.33 in993.2 mb 0.00 in0.0 mm 0.00 in0.0 mm 0.01 in0.3 mm
04:27 AM 33.1°F0.6°C 31.8°F-0.1°C 95% 2.0 mph N3.2 kmh N 10.1 mph16.3 kmh 29.34 in993.6 mb 0.00 in0.0 mm 0.00 in0.0 mm 0.01 in0.3 mm
04:32 AM 32.9°F0.5°C 31.6°F-0.2°C 95% 2.9 mph NNE4.7 kmh NNE 10.1 mph16.3 kmh 29.34 in993.6 mb 0.00 in0.0 mm 0.00 in0.0 mm 0.01 in0.3 mm
04:37 AM 32.9°F0.5°C 31.6°F-0.2°C 95% 2.0 mph NW3.2 kmh NW 6.0 mph9.7 kmh 29.35 in993.9 mb 0.00 in0.0 mm 0.00 in0.0 mm 0.01 in0.3 mm
04:42 AM 32.7°F0.4°C 31.5°F-0.3°C 95% 2.0 mph NW3.2 kmh NW 9.0 mph14.5 kmh 29.36 in994.2 mb 0.00 in0.0 mm 0.00 in0.0 mm 0.01 in0.3 mm
04:47 AM 32.7°F0.4°C 31.5°F-0.3°C 95% 2.0 mph NW3.2 kmh NW 6.0 mph9.7 kmh 29.36 in994.2 mb 0.00 in0.0 mm 0.00 in0.0 mm 0.01 in0.3 mm
04:52 AM 32.7°F0.4°C 31.5°F-0.3°C 95% 2.0 mph NNW3.2 kmh NNW 6.0 mph9.7 kmh 29.37 in994.6 mb 0.00 in0.0 mm 0.00 in0.0 mm 0.01 in0.3 mm
04:57 AM 32.7°F0.4°C 31.5°F-0.3°C 95% 2.0 mph NW3.2 kmh NW 6.9 mph11.1 kmh 29.37 in994.6 mb 0.00 in0.0 mm 0.00 in0.0 mm 0.01 in0.3 mm
05:02 AM 32.7°F0.4°C 31.5°F-0.3°C 95% 2.0 mph NNW3.2 kmh NNW 6.9 mph11.1 kmh 29.37 in994.6 mb 0.00 in0.0 mm 0.00 in0.0 mm 0.01 in0.3 mm
05:07 AM 32.7°F0.4°C 31.5°F-0.3°C 95% 2.0 mph NW3.2 kmh NW 6.0 mph9.7 kmh 29.37 in994.6 mb 0.00 in0.0 mm 0.00 in0.0 mm 0.01 in0.3 mm
05:12 AM 32.7°F0.4°C 31.6°F-0.2°C 96% 2.0 mph WNW3.2 kmh WNW 4.9 mph7.9 kmh 29.38 in994.9 mb 0.00 in0.0 mm 0.00 in0.0 mm 0.01 in0.3 mm
05:17 AM 32.9°F0.5°C 31.8°F-0.1°C 96% 2.0 mph NNW3.2 kmh NNW 10.1 mph16.3 kmh 29.38 in994.9 mb 0.00 in0.0 mm 0.00 in0.0 mm 0.01 in0.3 mm
05:22 AM 32.9°F0.5°C 31.8°F-0.1°C 96% 2.9 mph NNW4.7 kmh NNW 14.0 mph22.5 kmh 29.38 in994.9 mb 0.00 in0.0 mm 0.00 in0.0 mm 0.01 in0.3 mm
05:27 AM 33.1°F0.6°C 32.0°F0.0°C 96% 2.9 mph NW4.7 kmh NW 6.9 mph11.1 kmh 29.39 in995.3 mb 0.00 in0.0 mm 0.00 in0.0 mm 0.01 in0.3 mm
05:32 AM 33.1°F0.6°C 31.8°F-0.1°C 95% 2.9 mph N4.7 kmh N 12.1 mph19.5 kmh 29.39 in995.3 mb 0.00 in0.0 mm 0.00 in0.0 mm 0.01 in0.3 mm
05:37 AM 33.1°F0.6°C 31.8°F-0.1°C 95% 2.9 mph N4.7 kmh N 8.1 mph13.0 kmh 29.40 in995.6 mb 0.00 in0.0 mm 0.00 in0.0 mm 0.01 in0.3 mm
05:42 AM 33.1°F0.6°C 31.8°F-0.1°C 95% 2.9 mph WNW4.7 kmh WNW 8.1 mph13.0 kmh 29.40 in995.6 mb 0.01 in0.3 mm 0.12 in3.0 mm 0.01 in0.3 mm
05:47 AM 33.1°F0.6°C 31.8°F-0.1°C 95% 2.9 mph WSW4.7 kmh WSW 6.9 mph11.1 kmh 29.41 in995.9 mb 0.01 in0.3 mm 0.00 in0.0 mm 0.02 in0.5 mm
05:52 AM 33.1°F0.6°C 31.8°F-0.1°C 95% 2.9 mph NW4.7 kmh NW 8.9 mph14.3 kmh 29.41 in995.9 mb 0.01 in0.3 mm 0.00 in0.0 mm 0.02 in0.5 mm
05:57 AM 32.9°F0.5°C 31.6°F-0.2°C 95% 2.9 mph NNW4.7 kmh NNW 6.9 mph11.1 kmh 29.41 in995.9 mb 0.01 in0.3 mm 0.00 in0.0 mm 0.02 in0.5 mm
06:02 AM 32.7°F0.4°C 31.5°F-0.3°C 95% 2.9 mph NW4.7 kmh NW 9.0 mph14.5 kmh 29.42 in996.3 mb 0.01 in0.3 mm 0.00 in0.0 mm 0.02 in0.5 mm
06:07 AM 32.7°F0.4°C 31.5°F-0.3°C 95% 2.9 mph WSW4.7 kmh WSW 10.1 mph16.3 kmh 29.43 in996.6 mb 0.01 in0.3 mm 0.00 in0.0 mm 0.02 in0.5 mm
06:12 AM 32.7°F0.4°C 31.5°F-0.3°C 95% 2.9 mph NNW4.7 kmh NNW 10.1 mph16.3 kmh 29.43 in996.6 mb 0.01 in0.3 mm 0.00 in0.0 mm 0.02 in0.5 mm
06:17 AM 32.7°F0.4°C 31.5°F-0.3°C 95% 4.0 mph WNW6.4 kmh WNW 12.1 mph19.5 kmh 29.44 in997.0 mb 0.01 in0.3 mm 0.00 in0.0 mm 0.02 in0.5 mm
06:22 AM 32.7°F0.4°C 31.5°F-0.3°C 95% 4.0 mph W6.4 kmh W 10.1 mph16.3 kmh 29.44 in997.0 mb 0.01 in0.3 mm 0.00 in0.0 mm 0.02 in0.5 mm
06:27 AM 32.5°F0.3°C 31.3°F-0.4°C 95% 4.0 mph NW6.4 kmh NW 11.0 mph17.7 kmh 29.45 in997.3 mb 0.01 in0.3 mm 0.00 in0.0 mm 0.02 in0.5 mm
06:32 AM 32.5°F0.3°C 31.3°F-0.4°C 95% 4.0 mph NNW6.4 kmh NNW 11.0 mph17.7 kmh 29.46 in997.6 mb 0.01 in0.3 mm 0.00 in0.0 mm 0.02 in0.5 mm
06:37 AM 32.5°F0.3°C 31.3°F-0.4°C 95% 4.0 mph N6.4 kmh N 8.1 mph13.0 kmh 29.47 in998.0 mb 0.01 in0.3 mm 0.00 in0.0 mm 0.02 in0.5 mm
06:42 AM 32.5°F0.3°C 31.3°F-0.4°C 95% 4.0 mph NW6.4 kmh NW 11.0 mph17.7 kmh 29.47 in998.0 mb 0.00 in0.0 mm 0.00 in0.0 mm 0.02 in0.5 mm
06:47 AM 32.5°F0.3°C 31.3°F-0.4°C 95% 4.0 mph NW6.4 kmh NW 8.9 mph14.3 kmh 29.48 in998.3 mb 0.00 in0.0 mm 0.00 in0.0 mm 0.02 in0.5 mm
06:52 AM 32.4°F0.2°C 31.1°F-0.5°C 95% 2.9 mph E4.7 kmh E 8.1 mph13.0 kmh 29.48 in998.3 mb 0.00 in0.0 mm 0.00 in0.0 mm 0.02 in0.5 mm
06:57 AM 32.4°F0.2°C 31.1°F-0.5°C 95% 2.9 mph NW4.7 kmh NW 8.1 mph13.0 kmh 29.48 in998.3 mb 0.00 in0.0 mm 0.00 in0.0 mm 0.02 in0.5 mm
07:02 AM 32.2°F0.1°C 30.9°F-0.6°C 95% 2.9 mph NNW4.7 kmh NNW 8.9 mph14.3 kmh 29.49 in998.6 mb 0.00 in0.0 mm 0.00 in0.0 mm 0.02 in0.5 mm
07:07 AM 32.2°F0.1°C 30.9°F-0.6°C 95% 4.0 mph NW6.4 kmh NW 8.1 mph13.0 kmh 29.49 in998.6 mb 0.00 in0.0 mm 0.00 in0.0 mm 0.02 in0.5 mm
07:12 AM 32.0°F0.0°C 30.7°F-0.7°C 95% 4.0 mph NW6.4 kmh NW 8.1 mph13.0 kmh 29.50 in999.0 mb 0.00 in0.0 mm 0.00 in0.0 mm 0.02 in0.5 mm
07:18 AM 32.0°F0.0°C 30.7°F-0.7°C 95% 2.9 mph NW4.7 kmh NW 10.1 mph16.3 kmh 29.50 in999.0 mb 0.00 in0.0 mm 0.00 in0.0 mm 0.02 in0.5 mm
07:23 AM 31.8°F-0.1°C 30.6°F-0.8°C 95% 4.0 mph NNW6.4 kmh NNW 10.1 mph16.3 kmh 29.50 in999.0 mb 0.00 in0.0 mm 0.00 in0.0 mm 0.02 in0.5 mm
07:28 AM 31.8°F-0.1°C 30.6°F-0.8°C 95% 4.0 mph NNE6.4 kmh NNE 10.1 mph16.3 kmh 29.51 in999.3 mb 0.00 in0.0 mm 0.00 in0.0 mm 0.02 in0.5 mm
07:33 AM 31.6°F-0.2°C 30.6°F-0.8°C 96% 4.0 mph NNE6.4 kmh NNE 15.0 mph24.1 kmh 29.51 in999.3 mb 0.00 in0.0 mm 0.00 in0.0 mm 0.02 in0.5 mm
07:38 AM 31.6°F-0.2°C 30.6°F-0.8°C 96% 4.0 mph NW6.4 kmh NW 8.9 mph14.3 kmh 29.52 in999.7 mb 0.00 in0.0 mm 0.00 in0.0 mm 0.02 in0.5 mm
07:43 AM 31.6°F-0.2°C 30.6°F-0.8°C 96% 4.0 mph N6.4 kmh N 12.1 mph19.5 kmh 29.52 in999.7 mb 0.00 in0.0 mm 0.00 in0.0 mm 0.02 in0.5 mm
07:48 AM 31.6°F-0.2°C 30.6°F-0.8°C 96% 2.9 mph NW4.7 kmh NW 8.9 mph14.3 kmh 29.53 in1000.0 mb 0.00 in0.0 mm 0.00 in0.0 mm 0.02 in0.5 mm
07:53 AM 31.6°F-0.2°C 30.6°F-0.8°C 96% 2.9 mph NW4.7 kmh NW 8.9 mph14.3 kmh 29.53 in1000.0 mb 0.00 in0.0 mm 0.00 in0.0 mm 0.02 in0.5 mm
07:58 AM 31.5°F-0.3°C 30.4°F-0.9°C 96% 2.9 mph W4.7 kmh W 8.9 mph14.3 kmh 29.53 in1000.0 mb 0.00 in0.0 mm 0.00 in0.0 mm 0.02 in0.5 mm
08:03 AM 31.5°F-0.3°C 30.4°F-0.9°C 96% 2.9 mph NNW4.7 kmh NNW 8.9 mph14.3 kmh 29.53 in1000.0 mb 0.00 in0.0 mm 0.00 in0.0 mm 0.02 in0.5 mm
08:08 AM 31.5°F-0.3°C 30.4°F-0.9°C 96% 4.0 mph NW6.4 kmh NW 8.9 mph14.3 kmh 29.54 in1000.3 mb 0.00 in0.0 mm 0.00 in0.0 mm 0.02 in0.5 mm
08:13 AM 31.5°F-0.3°C 30.4°F-0.9°C 96% 4.0 mph WNW6.4 kmh WNW 8.9 mph14.3 kmh 29.54 in1000.3 mb 0.00 in0.0 mm 0.00 in0.0 mm 0.02 in0.5 mm
08:18 AM 31.3°F-0.4°C 30.2°F-1.0°C 96% 4.0 mph N6.4 kmh N 16.1 mph25.9 kmh 29.54 in1000.3 mb 0.00 in0.0 mm 0.00 in0.0 mm 0.02 in0.5 mm
08:23 AM 31.3°F-0.4°C 30.2°F-1.0°C 96% 4.0 mph N6.4 kmh N 6.0 mph9.7 kmh 29.55 in1000.7 mb 0.00 in0.0 mm 0.00 in0.0 mm 0.02 in0.5 mm
08:28 AM 31.3°F-0.4°C 30.2°F-1.0°C 96% 2.9 mph NNW4.7 kmh NNW 8.1 mph13.0 kmh 29.55 in1000.7 mb 0.00 in0.0 mm 0.00 in0.0 mm 0.02 in0.5 mm
08:33 AM 31.3°F-0.4°C 30.2°F-1.0°C 96% 2.9 mph NW4.7 kmh NW 6.0 mph9.7 kmh 29.56 in1001.0 mb 0.00 in0.0 mm 0.00 in0.0 mm 0.02 in0.5 mm
08:38 AM 31.3°F-0.4°C 30.2°F-1.0°C 96% 2.9 mph N4.7 kmh N 8.1 mph13.0 kmh 29.56 in1001.0 mb 0.00 in0.0 mm 0.00 in0.0 mm 0.02 in0.5 mm
08:43 AM 31.3°F-0.4°C 30.2°F-1.0°C 96% 4.0 mph NW6.4 kmh NW 8.1 mph13.0 kmh 29.56 in1001.0 mb 0.00 in0.0 mm 0.00 in0.0 mm 0.02 in0.5 mm
08:48 AM 31.3°F-0.4°C 30.2°F-1.0°C 96% 2.9 mph N4.7 kmh N 6.9 mph11.1 kmh 29.56 in1001.0 mb 0.00 in0.0 mm 0.00 in0.0 mm 0.02 in0.5 mm
08:53 AM 31.3°F-0.4°C 30.0°F-1.1°C 95% 2.9 mph N4.7 kmh N 8.9 mph14.3 kmh 29.57 in1001.4 mb 0.00 in0.0 mm 0.00 in0.0 mm 0.02 in0.5 mm
08:58 AM 31.5°F-0.3°C 30.4°F-0.9°C 96% 2.9 mph WNW4.7 kmh WNW 8.9 mph14.3 kmh 29.57 in1001.4 mb 0.00 in0.0 mm 0.00 in0.0 mm 0.02 in0.5 mm
09:03 AM 31.5°F-0.3°C 30.2°F-1.0°C 95% 2.9 mph N4.7 kmh N 8.9 mph14.3 kmh 29.57 in1001.4 mb 0.00 in0.0 mm 0.00 in0.0 mm 0.02 in0.5 mm
09:08 AM 31.5°F-0.3°C 30.2°F-1.0°C 95% 2.9 mph NNE4.7 kmh NNE 8.1 mph13.0 kmh 29.58 in1001.7 mb 0.00 in0.0 mm 0.00 in0.0 mm 0.02 in0.5 mm
09:13 AM 31.5°F-0.3°C 30.2°F-1.0°C 95% 2.9 mph WSW4.7 kmh WSW 10.0 mph16.1 kmh 29.58 in1001.7 mb 0.00 in0.0 mm 0.00 in0.0 mm 0.02 in0.5 mm
09:18 AM 31.5°F-0.3°C 30.2°F-1.0°C 95% 2.9 mph NW4.7 kmh NW 8.1 mph13.0 kmh 29.58 in1001.7 mb 0.00 in0.0 mm 0.00 in0.0 mm 0.02 in0.5 mm
09:23 AM 31.5°F-0.3°C 30.2°F-1.0°C 95% 2.9 mph NNW4.7 kmh NNW 9.0 mph14.5 kmh 29.59 in1002.0 mb 0.00 in0.0 mm 0.00 in0.0 mm 0.02 in0.5 mm
09:28 AM 31.6°F-0.2°C 30.2°F-1.0°C 94% 2.9 mph NW4.7 kmh NW 8.9 mph14.3 kmh 29.59 in1002.0 mb 0.00 in0.0 mm 0.00 in0.0 mm 0.02 in0.5 mm
09:33 AM 31.6°F-0.2°C 30.2°F-1.0°C 94% 2.9 mph NNW4.7 kmh NNW 4.9 mph7.9 kmh 29.60 in1002.4 mb 0.00 in0.0 mm 0.00 in0.0 mm 0.02 in0.5 mm
09:38 AM 31.6°F-0.2°C 30.2°F-1.0°C 94% 2.0 mph W3.2 kmh W 6.9 mph11.1 kmh 29.60 in1002.4 mb 0.00 in0.0 mm 0.00 in0.0 mm 0.02 in0.5 mm
09:43 AM 31.6°F-0.2°C 30.2°F-1.0°C 94% 2.0 mph N3.2 kmh N 6.9 mph11.1 kmh 29.61 in1002.7 mb 0.00 in0.0 mm 0.00 in0.0 mm 0.02 in0.5 mm
09:48 AM 31.6°F-0.2°C 30.2°F-1.0°C 94% 2.9 mph WNW4.7 kmh WNW 6.9 mph11.1 kmh 29.61 in1002.7 mb 0.00 in0.0 mm 0.00 in0.0 mm 0.02 in0.5 mm
09:53 AM 31.6°F-0.2°C 29.8°F-1.2°C 93% 4.0 mph NNW6.4 kmh NNW 8.1 mph13.0 kmh 29.61 in1002.7 mb 0.00 in0.0 mm 0.00 in0.0 mm 0.02 in0.5 mm
09:58 AM 31.6°F-0.2°C 29.8°F-1.2°C 93% 4.0 mph NW6.4 kmh NW 14.1 mph22.7 kmh 29.62 in1003.0 mb 0.00 in0.0 mm 0.00 in0.0 mm 0.02 in0.5 mm
10:03 AM 31.6°F-0.2°C 29.8°F-1.2°C 93% 4.9 mph N7.9 kmh N 10.1 mph16.3 kmh 29.62 in1003.0 mb 0.00 in0.0 mm 0.00 in0.0 mm 0.02 in0.5 mm
10:08 AM 31.6°F-0.2°C 29.7°F-1.3°C 92% 4.9 mph NE7.9 kmh NE 8.9 mph14.3 kmh 29.62 in1003.0 mb 0.00 in0.0 mm 0.00 in0.0 mm 0.02 in0.5 mm
10:13 AM 31.8°F-0.1°C 29.8°F-1.2°C 92% 4.9 mph NW7.9 kmh NW 13.0 mph20.9 kmh 29.62 in1003.0 mb 0.00 in0.0 mm 0.00 in0.0 mm 0.02 in0.5 mm
10:18 AM 31.8°F-0.1°C 29.8°F-1.2°C 92% 4.9 mph NW7.9 kmh NW 13.0 mph20.9 kmh 29.63 in1003.4 mb 0.00 in0.0 mm 0.00 in0.0 mm 0.02 in0.5 mm
10:23 AM 31.8°F-0.1°C 29.8°F-1.2°C 92% 4.0 mph NW6.4 kmh NW 10.0 mph16.1 kmh 29.63 in1003.4 mb 0.00 in0.0 mm 0.00 in0.0 mm 0.02 in0.5 mm
10:28 AM 31.8°F-0.1°C 29.8°F-1.2°C 92% 2.9 mph NNW4.7 kmh NNW 10.0 mph16.1 kmh 29.63 in1003.4 mb 0.00 in0.0 mm 0.00 in0.0 mm 0.02 in0.5 mm
10:33 AM 31.8°F-0.1°C 29.5°F-1.4°C 91% 4.0 mph NW6.4 kmh NW 14.1 mph22.7 kmh 29.63 in1003.4 mb 0.00 in0.0 mm 0.00 in0.0 mm 0.02 in0.5 mm
10:38 AM 31.8°F-0.1°C 29.5°F-1.4°C 91% 4.0 mph NNW6.4 kmh NNW 11.0 mph17.7 kmh 29.64 in1003.7 mb 0.00 in0.0 mm 0.00 in0.0 mm 0.02 in0.5 mm
10:43 AM 32.0°F0.0°C 29.7°F-1.3°C 91% 2.9 mph N4.7 kmh N 6.9 mph11.1 kmh 29.64 in1003.7 mb 0.00 in0.0 mm 0.00 in0.0 mm 0.02 in0.5 mm
10:48 AM 32.0°F0.0°C 29.7°F-1.3°C 91% 2.9 mph NNW4.7 kmh NNW 16.1 mph25.9 kmh 29.64 in1003.7 mb 0.00 in0.0 mm 0.00 in0.0 mm 0.02 in0.5 mm
10:53 AM 32.0°F0.0°C 29.7°F-1.3°C 91% 4.9 mph NE7.9 kmh NE 12.1 mph19.5 kmh 29.64 in1003.7 mb 0.00 in0.0 mm 0.00 in0.0 mm 0.02 in0.5 mm
10:58 AM 32.0°F0.0°C 29.5°F-1.4°C 90% 4.9 mph NW7.9 kmh NW 8.9 mph14.3 kmh 29.65 in1004.1 mb 0.00 in0.0 mm 0.00 in0.0 mm 0.02 in0.5 mm
11:03 AM 32.2°F0.1°C 29.7°F-1.3°C 90% 4.9 mph N7.9 kmh N 10.1 mph16.3 kmh 29.65 in1004.1 mb 0.00 in0.0 mm 0.00 in0.0 mm 0.02 in0.5 mm
11:08 AM 32.2°F0.1°C 29.7°F-1.3°C 90% 4.9 mph WSW7.9 kmh WSW 13.0 mph20.9 kmh 29.65 in1004.1 mb 0.00 in0.0 mm 0.00 in0.0 mm 0.02 in0.5 mm
11:13 AM 32.2°F0.1°C 29.7°F-1.3°C 90% 4.9 mph WNW7.9 kmh WNW 8.9 mph14.3 kmh 29.65 in1004.1 mb 0.00 in0.0 mm 0.00 in0.0 mm 0.02 in0.5 mm
11:18 AM 32.2°F0.1°C 29.7°F-1.3°C 90% 4.0 mph NNW6.4 kmh NNW 8.9 mph14.3 kmh 29.66 in1004.4 mb 0.00 in0.0 mm 0.00 in0.0 mm 0.02 in0.5 mm
11:23 AM 32.2°F0.1°C 29.7°F-1.3°C 90% 4.0 mph NNW6.4 kmh NNW 10.1 mph16.3 kmh 29.66 in1004.4 mb 0.00 in0.0 mm 0.00 in0.0 mm 0.02 in0.5 mm
11:28 AM 32.2°F0.1°C 29.3°F-1.5°C 89% 4.0 mph NNE6.4 kmh NNE 15.0 mph24.1 kmh 29.66 in1004.4 mb 0.00 in0.0 mm 0.00 in0.0 mm 0.02 in0.5 mm
11:33 AM 32.2°F0.1°C 29.3°F-1.5°C 89% 4.9 mph NE7.9 kmh NE 11.0 mph17.7 kmh 29.66 in1004.4 mb 0.00 in0.0 mm 0.00 in0.0 mm 0.02 in0.5 mm
11:38 AM 32.2°F0.1°C 29.7°F-1.3°C 90% 4.0 mph N6.4 kmh N 6.9 mph11.1 kmh 29.67 in1004.7 mb 0.00 in0.0 mm 0.00 in0.0 mm 0.02 in0.5 mm
11:43 AM 32.2°F0.1°C 29.3°F-1.5°C 89% 4.0 mph NW6.4 kmh NW 18.0 mph29.0 kmh 29.67 in1004.7 mb 0.00 in0.0 mm 0.00 in0.0 mm 0.02 in0.5 mm
11:48 AM 32.2°F0.1°C 29.3°F-1.5°C 89% 4.0 mph NNW6.4 kmh NNW 10.1 mph16.3 kmh 29.67 in1004.7 mb 0.00 in0.0 mm 0.00 in0.0 mm 0.02 in0.5 mm
11:53 AM 32.2°F0.1°C 29.3°F-1.5°C 89% 4.0 mph WNW6.4 kmh WNW 10.1 mph16.3 kmh 29.68 in1005.1 mb 0.00 in0.0 mm 0.00 in0.0 mm 0.02 in0.5 mm
11:58 AM 32.2°F0.1°C 29.3°F-1.5°C 89% 4.0 mph NNW6.4 kmh NNW 10.1 mph16.3 kmh 29.68 in1005.1 mb 0.00 in0.0 mm 0.00 in0.0 mm 0.02 in0.5 mm
12:03 PM 32.2°F0.1°C 29.3°F-1.5°C 89% 2.9 mph NW4.7 kmh NW 8.9 mph14.3 kmh 29.68 in1005.1 mb 0.00 in0.0 mm 0.00 in0.0 mm 0.02 in0.5 mm
12:08 PM 32.2°F0.1°C 29.3°F-1.5°C 89% 4.0 mph NW6.4 kmh NW 11.0 mph17.7 kmh 29.69 in1005.4 mb 0.00 in0.0 mm 0.00 in0.0 mm 0.02 in0.5 mm
12:13 PM 32.2°F0.1°C 29.3°F-1.5°C 89% 4.9 mph NW7.9 kmh NW 12.1 mph19.5 kmh 29.69 in1005.4 mb 0.00 in0.0 mm 0.00 in0.0 mm 0.02 in0.5 mm
12:18 PM 32.2°F0.1°C 29.3°F-1.5°C 89% 4.9 mph NNE7.9 kmh NNE 12.1 mph19.5 kmh 29.69 in1005.4 mb 0.00 in0.0 mm 0.00 in0.0 mm 0.02 in0.5 mm
12:23 PM 32.2°F0.1°C 29.3°F-1.5°C 89% 4.9 mph NW7.9 kmh NW 14.1 mph22.7 kmh 29.69 in1005.4 mb 0.00 in0.0 mm 0.00 in0.0 mm 0.02 in0.5 mm
12:28 PM 32.2°F0.1°C 29.3°F-1.5°C 89% 4.9 mph WSW7.9 kmh WSW 12.1 mph19.5 kmh 29.69 in1005.4 mb 0.00 in0.0 mm 0.00 in0.0 mm 0.02 in0.5 mm
12:33 PM 31.8°F-0.1°C 29.3°F-1.5°C 90% 4.0 mph NNE6.4 kmh NNE 11.0 mph17.7 kmh 29.70 in1005.8 mb 0.00 in0.0 mm 0.00 in0.0 mm 0.02 in0.5 mm
12:38 PM 31.6°F-0.2°C 29.3°F-1.5°C 91% 4.0 mph N6.4 kmh N 10.1 mph16.3 kmh 29.70 in1005.8 mb 0.00 in0.0 mm 0.00 in0.0 mm 0.02 in0.5 mm
12:43 PM 31.5°F-0.3°C 29.1°F-1.6°C 91% 4.0 mph NNW6.4 kmh NNW 12.1 mph19.5 kmh 29.70 in1005.8 mb 0.00 in0.0 mm 0.00 in0.0 mm 0.02 in0.5 mm
12:48 PM 31.3°F-0.4°C 28.9°F-1.7°C 91% 4.0 mph W6.4 kmh W 12.1 mph19.5 kmh 29.70 in1005.8 mb 0.00 in0.0 mm 0.00 in0.0 mm 0.02 in0.5 mm
12:53 PM 31.3°F-0.4°C 28.9°F-1.7°C 91% 4.0 mph NW6.4 kmh NW 10.1 mph16.3 kmh 29.71 in1006.1 mb 0.00 in0.0 mm 0.00 in0.0 mm 0.02 in0.5 mm
12:58 PM 31.3°F-0.4°C 29.3°F-1.5°C 92% 4.0 mph NW6.4 kmh NW 8.1 mph13.0 kmh 29.71 in1006.1 mb 0.00 in0.0 mm 0.00 in0.0 mm 0.02 in0.5 mm
01:03 PM 31.3°F-0.4°C 29.3°F-1.5°C 92% 2.9 mph W4.7 kmh W 11.0 mph17.7 kmh 29.72 in1006.4 mb 0.00 in0.0 mm 0.00 in0.0 mm 0.02 in0.5 mm
01:08 PM 31.3°F-0.4°C 28.9°F-1.7°C 91% 4.0 mph NW6.4 kmh NW 12.1 mph19.5 kmh 29.72 in1006.4 mb 0.00 in0.0 mm 0.00 in0.0 mm 0.02 in0.5 mm
01:13 PM 31.3°F-0.4°C 28.8°F-1.8°C 90% 4.9 mph N7.9 kmh N 13.0 mph20.9 kmh 29.72 in1006.4 mb 0.00 in0.0 mm 0.00 in0.0 mm 0.02 in0.5 mm
01:18 PM 31.3°F-0.4°C 28.8°F-1.8°C 90% 4.9 mph NW7.9 kmh NW 15.0 mph24.1 kmh 29.72 in1006.4 mb 0.00 in0.0 mm 0.00 in0.0 mm 0.02 in0.5 mm
01:23 PM 31.5°F-0.3°C 28.9°F-1.7°C 90% 4.9 mph NE7.9 kmh NE 16.1 mph25.9 kmh 29.73 in1006.8 mb 0.00 in0.0 mm 0.00 in0.0 mm 0.02 in0.5 mm
01:28 PM 31.3°F-0.4°C 28.4°F-2.0°C 89% 4.9 mph NW7.9 kmh NW 15.0 mph24.1 kmh 29.73 in1006.8 mb 0.00 in0.0 mm 0.00 in0.0 mm 0.02 in0.5 mm
01:33 PM 31.3°F-0.4°C 28.8°F-1.8°C 90% 4.9 mph NNW7.9 kmh NNW 15.0 mph24.1 kmh 29.73 in1006.8 mb 0.00 in0.0 mm 0.00 in0.0 mm 0.02 in0.5 mm
01:38 PM 31.3°F-0.4°C 28.8°F-1.8°C 90% 4.0 mph NNW6.4 kmh NNW 15.0 mph24.1 kmh 29.74 in1007.1 mb 0.00 in0.0 mm 0.00 in0.0 mm 0.02 in0.5 mm
01:43 PM 31.3°F-0.4°C 28.8°F-1.8°C 90% 2.9 mph NW4.7 kmh NW 6.0 mph9.7 kmh 29.74 in1007.1 mb 0.00 in0.0 mm 0.00 in0.0 mm 0.02 in0.5 mm
01:48 PM 31.3°F-0.4°C 28.8°F-1.8°C 90% 2.9 mph NW4.7 kmh NW 10.1 mph16.3 kmh 29.74 in1007.1 mb 0.00 in0.0 mm 0.00 in0.0 mm 0.02 in0.5 mm
01:53 PM 31.3°F-0.4°C 28.8°F-1.8°C 90% 4.0 mph W6.4 kmh W 8.9 mph14.3 kmh 29.75 in1007.5 mb 0.00 in0.0 mm 0.00 in0.0 mm 0.02 in0.5 mm
01:58 PM 31.1°F-0.5°C 28.6°F-1.9°C 90% 4.9 mph WNW7.9 kmh WNW 12.1 mph19.5 kmh 29.75 in1007.5 mb 0.00 in0.0 mm 0.00 in0.0 mm 0.02 in0.5 mm
02:03 PM 30.9°F-0.6°C 28.6°F-1.9°C 91% 4.0 mph W6.4 kmh W 8.1 mph13.0 kmh 29.75 in1007.5 mb 0.00 in0.0 mm 0.00 in0.0 mm 0.02 in0.5 mm
02:08 PM 30.9°F-0.6°C 28.6°F-1.9°C 91% 4.0 mph N6.4 kmh N 10.1 mph16.3 kmh 29.75 in1007.5 mb 0.00 in0.0 mm 0.00 in0.0 mm 0.02 in0.5 mm
02:13 PM 30.9°F-0.6°C 28.6°F-1.9°C 91% 4.0 mph NW6.4 kmh NW 8.1 mph13.0 kmh 29.76 in1007.8 mb 0.00 in0.0 mm 0.00 in0.0 mm 0.02 in0.5 mm
02:18 PM 30.9°F-0.6°C 28.6°F-1.9°C 91% 4.0 mph WNW6.4 kmh WNW 11.0 mph17.7 kmh 29.76 in1007.8 mb 0.00 in0.0 mm 0.00 in0.0 mm 0.02 in0.5 mm
02:23 PM 30.9°F-0.6°C 28.6°F-1.9°C 91% 4.0 mph NW6.4 kmh NW 11.0 mph17.7 kmh 29.76 in1007.8 mb 0.00 in0.0 mm 0.00 in0.0 mm 0.02 in0.5 mm
02:28 PM 31.1°F-0.5°C 28.6°F-1.9°C 90% 4.0 mph W6.4 kmh W 11.0 mph17.7 kmh 29.77 in1008.1 mb 0.00 in0.0 mm 0.00 in0.0 mm 0.02 in0.5 mm
02:33 PM 30.9°F-0.6°C 28.4°F-2.0°C 90% 4.0 mph NNW6.4 kmh NNW 12.1 mph19.5 kmh 29.78 in1008.5 mb 0.00 in0.0 mm 0.00 in0.0 mm 0.02 in0.5 mm
02:38 PM 30.9°F-0.6°C 28.4°F-2.0°C 90% 4.0 mph W6.4 kmh W 16.0 mph25.7 kmh 29.78 in1008.5 mb 0.00 in0.0 mm 0.00 in0.0 mm 0.02 in0.5 mm
02:43 PM 30.9°F-0.6°C 28.4°F-2.0°C 90% 4.0 mph NE6.4 kmh NE 6.9 mph11.1 kmh 29.79 in1008.8 mb 0.00 in0.0 mm 0.00 in0.0 mm 0.02 in0.5 mm
02:48 PM 30.9°F-0.6°C 28.4°F-2.0°C 90% 2.9 mph WSW4.7 kmh WSW 8.9 mph14.3 kmh 29.79 in1008.8 mb 0.00 in0.0 mm 0.00 in0.0 mm 0.02 in0.5 mm
02:53 PM 30.9°F-0.6°C 28.4°F-2.0°C 90% 2.9 mph W4.7 kmh W 8.1 mph13.0 kmh 29.80 in1009.1 mb 0.00 in0.0 mm 0.00 in0.0 mm 0.02 in0.5 mm
02:58 PM 30.9°F-0.6°C 28.4°F-2.0°C 90% 2.9 mph NW4.7 kmh NW 10.1 mph16.3 kmh 29.80 in1009.1 mb 0.00 in0.0 mm 0.00 in0.0 mm 0.02 in0.5 mm
03:03 PM 30.9°F-0.6°C 28.4°F-2.0°C 90% 4.0 mph NW6.4 kmh NW 8.9 mph14.3 kmh 29.80 in1009.1 mb 0.00 in0.0 mm 0.00 in0.0 mm 0.02 in0.5 mm
03:08 PM 30.9°F-0.6°C 28.4°F-2.0°C 90% 2.9 mph NW4.7 kmh NW 8.1 mph13.0 kmh 29.81 in1009.5 mb 0.00 in0.0 mm 0.00 in0.0 mm 0.02 in0.5 mm
03:13 PM 30.9°F-0.6°C 28.4°F-2.0°C 90% 4.0 mph WSW6.4 kmh WSW 11.0 mph17.7 kmh 29.81 in1009.5 mb 0.00 in0.0 mm 0.00 in0.0 mm 0.02 in0.5 mm
03:18 PM 30.9°F-0.6°C 28.4°F-2.0°C 90% 4.0 mph NNE6.4 kmh NNE 11.0 mph17.7 kmh 29.81 in1009.5 mb 0.00 in0.0 mm 0.00 in0.0 mm 0.02 in0.5 mm
03:23 PM 30.9°F-0.6°C 28.4°F-2.0°C 90% 4.9 mph NW7.9 kmh NW 14.1 mph22.7 kmh 29.81 in1009.5 mb 0.00 in0.0 mm 0.00 in0.0 mm 0.02 in0.5 mm
03:28 PM 30.7°F-0.7°C 28.2°F-2.1°C 90% 4.9 mph NW7.9 kmh NW 16.0 mph25.7 kmh 29.82 in1009.8 mb 0.00 in0.0 mm 0.00 in0.0 mm 0.02 in0.5 mm
03:33 PM 30.7°F-0.7°C 28.2°F-2.1°C 90% 4.0 mph NNW6.4 kmh NNW 11.0 mph17.7 kmh 29.82 in1009.8 mb 0.00 in0.0 mm 0.00 in0.0 mm 0.02 in0.5 mm
03:38 PM 30.7°F-0.7°C 28.2°F-2.1°C 90% 2.9 mph NW4.7 kmh NW 10.1 mph16.3 kmh 29.82 in1009.8 mb 0.00 in0.0 mm 0.00 in0.0 mm 0.02 in0.5 mm
03:43 PM 30.7°F-0.7°C 28.2°F-2.1°C 90% 4.0 mph NW6.4 kmh NW 10.1 mph16.3 kmh 29.83 in1010.2 mb 0.00 in0.0 mm 0.00 in0.0 mm 0.02 in0.5 mm
03:48 PM 30.7°F-0.7°C 27.9°F-2.3°C 89% 4.0 mph NNW6.4 kmh NNW 17.0 mph27.4 kmh 29.83 in1010.2 mb 0.00 in0.0 mm 0.00 in0.0 mm 0.02 in0.5 mm
03:53 PM 30.7°F-0.7°C 28.2°F-2.1°C 90% 2.9 mph W4.7 kmh W 14.1 mph22.7 kmh 29.83 in1010.2 mb 0.00 in0.0 mm 0.00 in0.0 mm 0.02 in0.5 mm
03:58 PM 30.7°F-0.7°C 27.9°F-2.3°C 89% 2.9 mph WNW4.7 kmh WNW 8.9 mph14.3 kmh 29.84 in1010.5 mb 0.00 in0.0 mm 0.00 in0.0 mm 0.02 in0.5 mm
04:03 PM 30.7°F-0.7°C 27.9°F-2.3°C 89% 4.0 mph WNW6.4 kmh WNW 12.1 mph19.5 kmh 29.84 in1010.5 mb 0.00 in0.0 mm 0.00 in0.0 mm 0.02 in0.5 mm
04:08 PM 30.7°F-0.7°C 27.7°F-2.4°C 88% 4.9 mph NNW7.9 kmh NNW 15.0 mph24.1 kmh 29.84 in1010.5 mb 0.00 in0.0 mm 0.00 in0.0 mm 0.02 in0.5 mm
04:13 PM 30.6°F-0.8°C 27.5°F-2.5°C 88% 4.9 mph N7.9 kmh N 15.0 mph24.1 kmh 29.84 in1010.5 mb 0.00 in0.0 mm 0.00 in0.0 mm 0.02 in0.5 mm
04:18 PM 30.6°F-0.8°C 27.5°F-2.5°C 88% 4.9 mph N7.9 kmh N 11.0 mph17.7 kmh 29.84 in1010.5 mb 0.00 in0.0 mm 0.00 in0.0 mm 0.02 in0.5 mm
04:23 PM 30.6°F-0.8°C 27.5°F-2.5°C 88% 4.0 mph NW6.4 kmh NW 8.9 mph14.3 kmh 29.85 in1010.8 mb 0.00 in0.0 mm 0.00 in0.0 mm 0.02 in0.5 mm
04:28 PM 30.6°F-0.8°C 27.5°F-2.5°C 88% 4.0 mph N6.4 kmh N 10.1 mph16.3 kmh 29.85 in1010.8 mb 0.00 in0.0 mm 0.00 in0.0 mm 0.02 in0.5 mm
04:33 PM 30.6°F-0.8°C 27.5°F-2.5°C 88% 4.0 mph WNW6.4 kmh WNW 14.1 mph22.7 kmh 29.86 in1011.2 mb 0.00 in0.0 mm 0.00 in0.0 mm 0.02 in0.5 mm
04:39 PM 30.6°F-0.8°C 27.5°F-2.5°C 88% 4.0 mph N6.4 kmh N 12.1 mph19.5 kmh 29.86 in1011.2 mb 0.00 in0.0 mm 0.00 in0.0 mm 0.02 in0.5 mm
04:44 PM 30.6°F-0.8°C 27.1°F-2.7°C 87% 4.0 mph WNW6.4 kmh WNW 15.0 mph24.1 kmh 29.87 in1011.5 mb 0.00 in0.0 mm 0.00 in0.0 mm 0.02 in0.5 mm
04:49 PM 30.6°F-0.8°C 27.1°F-2.7°C 87% 4.0 mph NNW6.4 kmh NNW 8.1 mph13.0 kmh 29.87 in1011.5 mb 0.00 in0.0 mm 0.00 in0.0 mm 0.02 in0.5 mm
04:54 PM 30.6°F-0.8°C 27.1°F-2.7°C 87% 4.0 mph WSW6.4 kmh WSW 12.1 mph19.5 kmh 29.87 in1011.5 mb 0.00 in0.0 mm 0.00 in0.0 mm 0.02 in0.5 mm
04:59 PM 30.6°F-0.8°C 27.5°F-2.5°C 88% 4.0 mph N6.4 kmh N 8.9 mph14.3 kmh 29.87 in1011.5 mb 0.00 in0.0 mm 0.00 in0.0 mm 0.02 in0.5 mm
05:04 PM 30.6°F-0.8°C 27.1°F-2.7°C 87% 4.0 mph NW6.4 kmh NW 13.0 mph20.9 kmh 29.87 in1011.5 mb 0.00 in0.0 mm 0.00 in0.0 mm 0.02 in0.5 mm
05:09 PM 30.6°F-0.8°C 27.1°F-2.7°C 87% 4.0 mph N6.4 kmh N 14.1 mph22.7 kmh 29.88 in1011.9 mb 0.00 in0.0 mm 0.00 in0.0 mm 0.02 in0.5 mm
05:14 PM 30.6°F-0.8°C 27.1°F-2.7°C 87% 4.9 mph N7.9 kmh N 17.0 mph27.4 kmh 29.88 in1011.9 mb 0.00 in0.0 mm 0.00 in0.0 mm 0.02 in0.5 mm
05:19 PM 30.6°F-0.8°C 27.1°F-2.7°C 87% 4.9 mph WNW7.9 kmh WNW 14.1 mph22.7 kmh 29.89 in1012.2 mb 0.00 in0.0 mm 0.00 in0.0 mm 0.02 in0.5 mm
05:24 PM 30.6°F-0.8°C 27.1°F-2.7°C 87% 4.9 mph NW7.9 kmh NW 15.0 mph24.1 kmh 29.89 in1012.2 mb 0.00 in0.0 mm 0.00 in0.0 mm 0.02 in0.5 mm
05:29 PM 30.4°F-0.9°C 27.0°F-2.8°C 87% 4.9 mph NW7.9 kmh NW 13.0 mph20.9 kmh 29.90 in1012.5 mb 0.00 in0.0 mm 0.00 in0.0 mm 0.02 in0.5 mm
05:34 PM 30.4°F-0.9°C 27.0°F-2.8°C 87% 4.0 mph W6.4 kmh W 11.0 mph17.7 kmh 29.90 in1012.5 mb 0.00 in0.0 mm 0.00 in0.0 mm 0.02 in0.5 mm
05:39 PM 30.4°F-0.9°C 27.0°F-2.8°C 87% 4.0 mph N6.4 kmh N 14.1 mph22.7 kmh 29.90 in1012.5 mb 0.00 in0.0 mm 0.00 in0.0 mm 0.02 in0.5 mm
05:44 PM 30.4°F-0.9°C 27.0°F-2.8°C 87% 4.9 mph NNE7.9 kmh NNE 11.0 mph17.7 kmh 29.91 in1012.9 mb 0.00 in0.0 mm 0.00 in0.0 mm 0.02 in0.5 mm
05:49 PM 30.4°F-0.9°C 27.0°F-2.8°C 87% 4.9 mph N7.9 kmh N 15.0 mph24.1 kmh 29.91 in1012.9 mb 0.00 in0.0 mm 0.00 in0.0 mm 0.02 in0.5 mm
05:54 PM 30.4°F-0.9°C 27.0°F-2.8°C 87% 4.9 mph N7.9 kmh N 14.1 mph22.7 kmh 29.91 in1012.9 mb 0.00 in0.0 mm 0.00 in0.0 mm 0.02 in0.5 mm
05:59 PM 30.4°F-0.9°C 27.0°F-2.8°C 87% 4.9 mph WSW7.9 kmh WSW 11.0 mph17.7 kmh 29.91 in1012.9 mb 0.00 in0.0 mm 0.00 in0.0 mm 0.02 in0.5 mm
06:04 PM 30.4°F-0.9°C 27.0°F-2.8°C 87% 4.9 mph NW7.9 kmh NW 12.1 mph19.5 kmh 29.91 in1012.9 mb 0.00 in0.0 mm 0.00 in0.0 mm 0.02 in0.5 mm
06:09 PM 30.2°F-1.0°C 26.8°F-2.9°C 87% 4.9 mph N7.9 kmh N 11.0 mph17.7 kmh 29.92 in1013.2 mb 0.00 in0.0 mm 0.00 in0.0 mm 0.02 in0.5 mm
06:14 PM 30.0°F-1.1°C 26.6°F-3.0°C 87% 4.0 mph NW6.4 kmh NW 14.1 mph22.7 kmh 29.92 in1013.2 mb 0.00 in0.0 mm 0.00 in0.0 mm 0.02 in0.5 mm
06:19 PM 30.0°F-1.1°C 26.6°F-3.0°C 87% 4.0 mph NW6.4 kmh NW 8.9 mph14.3 kmh 29.92 in1013.2 mb 0.00 in0.0 mm 0.00 in0.0 mm 0.02 in0.5 mm
06:24 PM 30.0°F-1.1°C 26.6°F-3.0°C 87% 4.0 mph N6.4 kmh N 8.9 mph14.3 kmh 29.93 in1013.5 mb 0.00 in0.0 mm 0.00 in0.0 mm 0.02 in0.5 mm
06:29 PM 29.8°F-1.2°C 26.4°F-3.1°C 87% 4.0 mph SE6.4 kmh SE 16.1 mph25.9 kmh 29.92 in1013.2 mb 0.00 in0.0 mm 0.00 in0.0 mm 0.02 in0.5 mm
06:34 PM 29.8°F-1.2°C 26.4°F-3.1°C 87% 4.0 mph NW6.4 kmh NW 14.1 mph22.7 kmh 29.92 in1013.2 mb 0.00 in0.0 mm 0.00 in0.0 mm 0.02 in0.5 mm
06:39 PM 29.8°F-1.2°C 26.4°F-3.1°C 87% 4.0 mph NW6.4 kmh NW 12.1 mph19.5 kmh 29.93 in1013.5 mb 0.00 in0.0 mm 0.00 in0.0 mm 0.02 in0.5 mm
06:44 PM 29.7°F-1.3°C 26.2°F-3.2°C 87% 4.0 mph NW6.4 kmh NW 12.1 mph19.5 kmh 29.93 in1013.5 mb 0.00 in0.0 mm 0.00 in0.0 mm 0.02 in0.5 mm
06:49 PM 29.7°F-1.3°C 26.2°F-3.2°C 87% 4.9 mph NNW7.9 kmh NNW 10.1 mph16.3 kmh 29.94 in1013.9 mb 0.00 in0.0 mm 0.00 in0.0 mm 0.02 in0.5 mm
06:54 PM 29.7°F-1.3°C 26.2°F-3.2°C 87% 4.9 mph N7.9 kmh N 16.1 mph25.9 kmh 29.94 in1013.9 mb 0.00 in0.0 mm 0.00 in0.0 mm 0.02 in0.5 mm
06:59 PM 29.7°F-1.3°C 26.2°F-3.2°C 87% 4.9 mph NW7.9 kmh NW 10.1 mph16.3 kmh 29.94 in1013.9 mb 0.00 in0.0 mm 0.00 in0.0 mm 0.02 in0.5 mm
07:04 PM 29.7°F-1.3°C 26.2°F-3.2°C 87% 4.9 mph NW7.9 kmh NW 11.0 mph17.7 kmh 29.94 in1013.9 mb 0.00 in0.0 mm 0.00 in0.0 mm 0.02 in0.5 mm
07:09 PM 29.7°F-1.3°C 26.2°F-3.2°C 87% 4.0 mph NW6.4 kmh NW 8.9 mph14.3 kmh 29.94 in1013.9 mb 0.00 in0.0 mm 0.00 in0.0 mm 0.02 in0.5 mm
07:14 PM 29.7°F-1.3°C 26.2°F-3.2°C 87% 4.0 mph NNW6.4 kmh NNW 11.0 mph17.7 kmh 29.94 in1013.9 mb 0.00 in0.0 mm 0.00 in0.0 mm 0.02 in0.5 mm
07:19 PM 29.7°F-1.3°C 26.2°F-3.2°C 87% 4.0 mph NW6.4 kmh NW 6.9 mph11.1 kmh 29.95 in1014.2 mb 0.00 in0.0 mm 0.00 in0.0 mm 0.02 in0.5 mm
07:24 PM 29.7°F-1.3°C 26.6°F-3.0°C 88% 2.9 mph N4.7 kmh N 12.1 mph19.5 kmh 29.95 in1014.2 mb 0.00 in0.0 mm 0.00 in0.0 mm 0.02 in0.5 mm
07:29 PM 29.5°F-1.4°C 26.4°F-3.1°C 88% 2.9 mph W4.7 kmh W 10.1 mph16.3 kmh 29.94 in1013.9 mb 0.00 in0.0 mm 0.00 in0.0 mm 0.02 in0.5 mm
07:34 PM 29.5°F-1.4°C 26.1°F-3.3°C 87% 4.0 mph NW6.4 kmh NW 8.9 mph14.3 kmh 29.95 in1014.2 mb 0.00 in0.0 mm 0.00 in0.0 mm 0.02 in0.5 mm
07:39 PM 29.5°F-1.4°C 25.9°F-3.4°C 86% 4.0 mph N6.4 kmh N 11.0 mph17.7 kmh 29.95 in1014.2 mb 0.00 in0.0 mm 0.00 in0.0 mm 0.02 in0.5 mm
07:44 PM 29.5°F-1.4°C 25.9°F-3.4°C 86% 2.9 mph N4.7 kmh N 8.9 mph14.3 kmh 29.96 in1014.6 mb 0.00 in0.0 mm 0.00 in0.0 mm 0.02 in0.5 mm
07:49 PM 29.5°F-1.4°C 25.9°F-3.4°C 86% 2.9 mph WSW4.7 kmh WSW 6.0 mph9.7 kmh 29.96 in1014.6 mb 0.00 in0.0 mm 0.00 in0.0 mm 0.02 in0.5 mm
07:54 PM 29.5°F-1.4°C 25.9°F-3.4°C 86% 2.9 mph NNW4.7 kmh NNW 6.0 mph9.7 kmh 29.96 in1014.6 mb 0.00 in0.0 mm 0.00 in0.0 mm 0.02 in0.5 mm
07:59 PM 29.1°F-1.6°C 25.5°F-3.6°C 86% 2.9 mph NW4.7 kmh NW 8.0 mph12.9 kmh 29.96 in1014.6 mb 0.00 in0.0 mm 0.00 in0.0 mm 0.02 in0.5 mm
08:04 PM 29.1°F-1.6°C 25.7°F-3.5°C 87% 2.9 mph NW4.7 kmh NW 10.1 mph16.3 kmh 29.96 in1014.6 mb 0.00 in0.0 mm 0.00 in0.0 mm 0.02 in0.5 mm
08:09 PM 28.9°F-1.7°C 25.3°F-3.7°C 86% 2.9 mph NNW4.7 kmh NNW 6.9 mph11.1 kmh 29.97 in1014.9 mb 0.00 in0.0 mm 0.00 in0.0 mm 0.02 in0.5 mm
08:14 PM 28.9°F-1.7°C 25.5°F-3.6°C 87% 2.9 mph WNW4.7 kmh WNW 10.1 mph16.3 kmh 29.97 in1014.9 mb 0.00 in0.0 mm 0.00 in0.0 mm 0.02 in0.5 mm
08:19 PM 28.9°F-1.7°C 25.5°F-3.6°C 87% 4.0 mph NE6.4 kmh NE 8.9 mph14.3 kmh 29.98 in1015.2 mb 0.00 in0.0 mm 0.00 in0.0 mm 0.02 in0.5 mm
08:24 PM 28.9°F-1.7°C 25.3°F-3.7°C 86% 4.0 mph NNW6.4 kmh NNW 16.1 mph25.9 kmh 29.98 in1015.2 mb 0.00 in0.0 mm 0.00 in0.0 mm 0.02 in0.5 mm
08:29 PM 28.8°F-1.8°C 25.2°F-3.8°C 86% 4.9 mph NNW7.9 kmh NNW 18.0 mph29.0 kmh 29.98 in1015.2 mb 0.00 in0.0 mm 0.00 in0.0 mm 0.02 in0.5 mm
08:34 PM 28.8°F-1.8°C 25.2°F-3.8°C 86% 4.0 mph WSW6.4 kmh WSW 6.9 mph11.1 kmh 29.98 in1015.2 mb 0.00 in0.0 mm 0.00 in0.0 mm 0.02 in0.5 mm
08:39 PM 28.8°F-1.8°C 25.2°F-3.8°C 86% 2.9 mph NW4.7 kmh NW 12.1 mph19.5 kmh 29.98 in1015.2 mb 0.00 in0.0 mm 0.00 in0.0 mm 0.02 in0.5 mm
08:44 PM 28.8°F-1.8°C 25.2°F-3.8°C 86% 4.0 mph NW6.4 kmh NW 12.1 mph19.5 kmh 29.99 in1015.6 mb 0.00 in0.0 mm 0.00 in0.0 mm 0.02 in0.5 mm
08:49 PM 28.6°F-1.9°C 25.0°F-3.9°C 86% 4.0 mph NW6.4 kmh NW 10.1 mph16.3 kmh 29.98 in1015.2 mb 0.00 in0.0 mm 0.00 in0.0 mm 0.02 in0.5 mm
08:54 PM 28.6°F-1.9°C 25.2°F-3.8°C 87% 4.0 mph N6.4 kmh N 14.1 mph22.7 kmh 29.99 in1015.6 mb 0.00 in0.0 mm 0.00 in0.0 mm 0.02 in0.5 mm
08:59 PM 28.6°F-1.9°C 25.0°F-3.9°C 86% 4.0 mph N6.4 kmh N 8.9 mph14.3 kmh 29.99 in1015.6 mb 0.00 in0.0 mm 0.00 in0.0 mm 0.02 in0.5 mm
09:04 PM 28.6°F-1.9°C 25.0°F-3.9°C 86% 4.0 mph NE6.4 kmh NE 6.9 mph11.1 kmh 29.99 in1015.6 mb 0.00 in0.0 mm 0.00 in0.0 mm 0.02 in0.5 mm
09:09 PM 28.6°F-1.9°C 25.2°F-3.8°C 87% 2.9 mph NNW4.7 kmh NNW 8.1 mph13.0 kmh 30.00 in1015.9 mb 0.00 in0.0 mm 0.00 in0.0 mm 0.02 in0.5 mm
09:14 PM 28.6°F-1.9°C 25.2°F-3.8°C 87% 2.9 mph NNW4.7 kmh NNW 8.9 mph14.3 kmh 30.00 in1015.9 mb 0.00 in0.0 mm 0.00 in0.0 mm 0.02 in0.5 mm
09:19 PM 28.6°F-1.9°C 25.2°F-3.8°C 87% 4.0 mph N6.4 kmh N 6.9 mph11.1 kmh 30.00 in1015.9 mb 0.00 in0.0 mm 0.00 in0.0 mm 0.02 in0.5 mm
09:24 PM 28.2°F-2.1°C 24.8°F-4.0°C 87% 2.9 mph NNW4.7 kmh NNW 6.0 mph9.7 kmh 30.00 in1015.9 mb 0.00 in0.0 mm 0.00 in0.0 mm 0.02 in0.5 mm
09:29 PM 28.2°F-2.1°C 24.8°F-4.0°C 87% 2.9 mph NNE4.7 kmh NNE 9.0 mph14.5 kmh 30.00 in1015.9 mb 0.00 in0.0 mm 0.00 in0.0 mm 0.02 in0.5 mm
09:34 PM 28.2°F-2.1°C 24.8°F-4.0°C 87% 4.0 mph NNW6.4 kmh NNW 11.0 mph17.7 kmh 30.01 in1016.3 mb 0.00 in0.0 mm 0.00 in0.0 mm 0.02 in0.5 mm
09:39 PM 28.0°F-2.2°C 24.6°F-4.1°C 87% 4.0 mph N6.4 kmh N 11.0 mph17.7 kmh 30.00 in1015.9 mb 0.00 in0.0 mm 0.00 in0.0 mm 0.02 in0.5 mm
09:44 PM 28.0°F-2.2°C 24.6°F-4.1°C 87% 4.0 mph N6.4 kmh N 6.9 mph11.1 kmh 30.01 in1016.3 mb 0.00 in0.0 mm 0.00 in0.0 mm 0.02 in0.5 mm
09:49 PM 27.9°F-2.3°C 24.4°F-4.2°C 87% 2.9 mph NE4.7 kmh NE 6.9 mph11.1 kmh 30.01 in1016.3 mb 0.00 in0.0 mm 0.00 in0.0 mm 0.02 in0.5 mm
09:54 PM 27.9°F-2.3°C 24.4°F-4.2°C 87% 2.9 mph NW4.7 kmh NW 8.1 mph13.0 kmh 30.01 in1016.3 mb 0.00 in0.0 mm 0.00 in0.0 mm 0.02 in0.5 mm
10:00 PM 27.7°F-2.4°C 24.3°F-4.3°C 87% 2.9 mph NW4.7 kmh NW 12.1 mph19.5 kmh 30.02 in1016.6 mb 0.00 in0.0 mm 0.00 in0.0 mm 0.02 in0.5 mm
10:05 PM 27.7°F-2.4°C 24.6°F-4.1°C 88% 2.9 mph NW4.7 kmh NW 12.1 mph19.5 kmh 30.02 in1016.6 mb 0.00 in0.0 mm 0.00 in0.0 mm 0.02 in0.5 mm
10:10 PM 27.5°F-2.5°C 24.4°F-4.2°C 88% 4.0 mph NW6.4 kmh NW 8.9 mph14.3 kmh 30.02 in1016.6 mb 0.00 in0.0 mm 0.00 in0.0 mm 0.02 in0.5 mm
10:15 PM 27.5°F-2.5°C 24.1°F-4.4°C 87% 4.0 mph WNW6.4 kmh WNW 8.1 mph13.0 kmh 30.02 in1016.6 mb 0.00 in0.0 mm 0.00 in0.0 mm 0.02 in0.5 mm
10:20 PM 27.5°F-2.5°C 24.4°F-4.2°C 88% 2.9 mph NNE4.7 kmh NNE 14.1 mph22.7 kmh 30.02 in1016.6 mb 0.00 in0.0 mm 0.00 in0.0 mm 0.02 in0.5 mm
10:25 PM 27.5°F-2.5°C 24.1°F-4.4°C 87% 4.0 mph NNW6.4 kmh NNW 6.9 mph11.1 kmh 30.02 in1016.6 mb 0.00 in0.0 mm 0.00 in0.0 mm 0.02 in0.5 mm
10:30 PM 27.7°F-2.4°C 24.3°F-4.3°C 87% 4.0 mph NNE6.4 kmh NNE 6.9 mph11.1 kmh 30.03 in1016.9 mb 0.00 in0.0 mm 0.00 in0.0 mm 0.02 in0.5 mm
10:35 PM 27.7°F-2.4°C 24.3°F-4.3°C 87% 2.9 mph NNW4.7 kmh NNW 8.1 mph13.0 kmh 30.03 in1016.9 mb 0.00 in0.0 mm 0.00 in0.0 mm 0.02 in0.5 mm
10:40 PM 27.7°F-2.4°C 24.3°F-4.3°C 87% 2.9 mph NNW4.7 kmh NNW 8.9 mph14.3 kmh 30.03 in1016.9 mb 0.00 in0.0 mm 0.00 in0.0 mm 0.02 in0.5 mm
10:45 PM 27.5°F-2.5°C 23.9°F-4.5°C 86% 2.9 mph N4.7 kmh N 8.1 mph13.0 kmh 30.03 in1016.9 mb 0.00 in0.0 mm 0.00 in0.0 mm 0.02 in0.5 mm
10:50 PM 27.5°F-2.5°C 23.9°F-4.5°C 86% 4.0 mph NW6.4 kmh NW 11.0 mph17.7 kmh 30.04 in1017.3 mb 0.00 in0.0 mm 0.00 in0.0 mm 0.02 in0.5 mm
10:55 PM 27.3°F-2.6°C 23.7°F-4.6°C 86% 2.9 mph NW4.7 kmh NW 8.1 mph13.0 kmh 30.04 in1017.3 mb 0.00 in0.0 mm 0.00 in0.0 mm 0.02 in0.5 mm
11:00 PM 27.3°F-2.6°C 23.7°F-4.6°C 86% 2.9 mph NNW4.7 kmh NNW 9.0 mph14.5 kmh 30.04 in1017.3 mb 0.00 in0.0 mm 0.00 in0.0 mm 0.02 in0.5 mm
11:05 PM 27.3°F-2.6°C 23.7°F-4.6°C 86% 2.9 mph NNW4.7 kmh NNW 8.9 mph14.3 kmh 30.05 in1017.6 mb 0.00 in0.0 mm 0.00 in0.0 mm 0.02 in0.5 mm
11:10 PM 27.5°F-2.5°C 23.5°F-4.7°C 85% 4.0 mph WNW6.4 kmh WNW 8.9 mph14.3 kmh 30.05 in1017.6 mb 0.00 in0.0 mm 0.00 in0.0 mm 0.02 in0.5 mm
11:15 PM 27.7°F-2.4°C 23.7°F-4.6°C 85% 2.9 mph NW4.7 kmh NW 6.9 mph11.1 kmh 30.05 in1017.6 mb 0.00 in0.0 mm 0.00 in0.0 mm 0.02 in0.5 mm
11:20 PM 27.7°F-2.4°C 23.7°F-4.6°C 85% 2.9 mph NNE4.7 kmh NNE 9.0 mph14.5 kmh 30.05 in1017.6 mb 0.00 in0.0 mm 0.00 in0.0 mm 0.02 in0.5 mm
11:25 PM 27.7°F-2.4°C 23.7°F-4.6°C 85% 2.9 mph NNE4.7 kmh NNE 8.9 mph14.3 kmh 30.05 in1017.6 mb 0.00 in0.0 mm 0.00 in0.0 mm 0.02 in0.5 mm
11:30 PM 27.5°F-2.5°C 23.5°F-4.7°C 85% 2.9 mph WSW4.7 kmh WSW 8.1 mph13.0 kmh 30.05 in1017.6 mb 0.00 in0.0 mm 0.00 in0.0 mm 0.02 in0.5 mm
11:35 PM 27.3°F-2.6°C 23.7°F-4.6°C 86% 2.0 mph NNW3.2 kmh NNW 4.9 mph7.9 kmh 30.05 in1017.6 mb 0.00 in0.0 mm 0.00 in0.0 mm 0.02 in0.5 mm
11:40 PM 26.8°F-2.9°C 23.2°F-4.9°C 86% 2.0 mph W3.2 kmh W 8.0 mph12.9 kmh 30.06 in1017.9 mb 0.00 in0.0 mm 0.00 in0.0 mm 0.02 in0.5 mm
11:45 PM 26.2°F-3.2°C 22.6°F-5.2°C 86% 2.0 mph NNW3.2 kmh NNW 6.0 mph9.7 kmh 30.06 in1017.9 mb 0.00 in0.0 mm 0.00 in0.0 mm 0.02 in0.5 mm
11:50 PM 25.9°F-3.4°C 22.3°F-5.4°C 86% 2.0 mph WSW3.2 kmh WSW 8.0 mph12.9 kmh 30.06 in1017.9 mb 0.00 in0.0 mm 0.00 in0.0 mm 0.02 in0.5 mm
11:55 PM 25.7°F-3.5°C 22.1°F-5.5°C 86% 2.9 mph NW4.7 kmh NW 10.1 mph16.3 kmh 30.06 in1017.9 mb 0.00 in0.0 mm 0.00 in0.0 mm 0.02 in0.5 mm